createdAt,value
2017-11-09T00:00:06.094Z,48.93
2017-11-09T00:02:33.140Z,48.00
2017-11-09T00:08:04.987Z,48.80
2017-11-09T00:10:31.115Z,47.43
2017-11-09T00:12:57.187Z,43.53
2017-11-09T00:15:23.266Z,47.80
2017-11-09T00:17:49.399Z,47.30
2017-11-09T00:20:15.762Z,46.77
2017-11-09T00:22:42.654Z,44.43
2017-11-09T00:25:08.967Z,45.47
2017-11-09T00:27:35.530Z,44.77
2017-11-09T00:30:01.858Z,44.17
2017-11-09T00:32:28.184Z,46.87
2017-11-09T00:34:54.570Z,45.73
2017-11-09T00:37:20.847Z,47.00
2017-11-09T00:39:48.814Z,46.37
2017-11-09T00:42:15.147Z,45.33
2017-11-09T00:44:42.228Z,49.13
2017-11-09T00:47:08.483Z,47.93
2017-11-09T00:49:34.767Z,44.83
2017-11-09T00:52:01.145Z,48.67
2017-11-09T00:54:27.466Z,46.77
2017-11-09T00:56:53.818Z,45.40
2017-11-09T00:59:20.119Z,47.20
2017-11-09T01:01:47.176Z,44.43
2017-11-09T01:04:15.849Z,47.80
2017-11-09T01:06:42.144Z,44.90
2017-11-09T01:09:10.331Z,43.27
2017-11-09T01:11:36.711Z,45.23
2017-11-09T01:14:03.017Z,46.77
2017-11-09T01:16:29.380Z,43.90
2017-11-09T01:18:55.967Z,46.97
2017-11-09T01:21:22.217Z,46.63
2017-11-09T01:23:52.231Z,46.30
2017-11-09T01:26:18.537Z,46.80
2017-11-09T01:28:44.818Z,42.10
2017-11-09T01:31:11.070Z,43.47
2017-11-09T01:33:37.392Z,44.37
2017-11-09T01:36:03.674Z,47.17
2017-11-09T01:38:29.999Z,48.40
2017-11-09T01:40:57.057Z,48.10
2017-11-09T01:43:23.357Z,48.70
2017-11-09T01:45:50.615Z,47.13
2017-11-09T01:48:17.622Z,46.50
2017-11-09T01:50:43.887Z,49.07
2017-11-09T01:53:10.225Z,47.83
2017-11-09T01:55:36.538Z,51.23
2017-11-09T01:58:02.855Z,49.13
2017-11-09T02:00:29.128Z,47.10
2017-11-09T02:02:56.210Z,43.87
2017-11-09T02:05:23.227Z,45.30
2017-11-09T02:07:50.238Z,47.80
2017-11-09T02:10:18.186Z,47.50
2017-11-09T02:12:44.467Z,48.13
2017-11-09T02:15:10.968Z,46.77
2017-11-09T02:17:37.251Z,45.50
2017-11-09T02:20:03.523Z,45.83
2017-11-09T02:22:30.599Z,45.07
2017-11-09T02:24:56.882Z,48.43
2017-11-09T02:27:23.181Z,47.43
2017-11-09T02:29:53.779Z,46.90
2017-11-09T02:32:20.066Z,45.93
2017-11-09T02:34:47.281Z,46.50
2017-11-09T02:37:16.421Z,45.90
2017-11-09T02:39:42.707Z,45.80
2017-11-09T02:42:09.799Z,46.10
2017-11-09T02:44:36.087Z,48.37
2017-11-09T02:47:02.458Z,49.00
2017-11-09T02:49:28.738Z,48.90
2017-11-09T02:51:55.042Z,50.10
2017-11-09T02:54:31.672Z,51.47
2017-11-09T02:56:57.975Z,52.88
2017-11-09T02:59:29.047Z,48.17
2017-11-09T03:01:55.322Z,48.80
2017-11-09T03:04:23.700Z,45.47
2017-11-09T03:06:50.032Z,49.67
2017-11-09T03:09:17.974Z,45.67
2017-11-09T03:11:44.279Z,46.57
2017-11-09T03:14:11.125Z,48.47
2017-11-09T03:16:37.405Z,46.07
2017-11-09T03:19:03.863Z,45.40
2017-11-09T03:21:30.220Z,47.40
2017-11-09T03:23:57.277Z,44.40
2017-11-09T03:26:23.519Z,46.60
2017-11-09T03:28:49.950Z,47.27
2017-11-09T03:31:16.220Z,46.00
2017-11-09T03:33:42.487Z,45.70
2017-11-09T03:36:08.803Z,45.17
2017-11-09T03:38:35.219Z,45.67
2017-11-09T03:41:02.295Z,45.13
2017-11-09T03:43:28.594Z,44.47
2017-11-09T03:45:55.594Z,48.23
2017-11-09T03:48:21.850Z,46.33
2017-11-09T03:50:48.139Z,43.03
2017-11-09T03:53:17.703Z,49.20
2017-11-09T03:55:44.001Z,46.80
2017-11-09T03:58:14.269Z,45.70
2017-11-09T04:00:40.839Z,47.20
2017-11-09T04:03:07.890Z,47.33
2017-11-09T04:05:34.181Z,49.23
2017-11-09T04:08:01.260Z,47.17
2017-11-09T04:10:27.455Z,49.87
2017-11-09T04:12:53.763Z,47.77
2017-11-09T04:15:20.083Z,50.43
2017-11-09T04:17:46.399Z,47.50
2017-11-09T04:20:12.711Z,46.53
2017-11-09T04:22:43.075Z,47.00
2017-11-09T04:25:09.508Z,47.30
2017-11-09T04:27:39.750Z,47.43
2017-11-09T04:30:06.609Z,46.77
2017-11-09T04:32:32.671Z,45.87
2017-11-09T04:34:58.743Z,47.93
2017-11-09T04:37:27.884Z,47.77
2017-11-09T04:39:54.156Z,47.60
2017-11-09T04:44:51.835Z,47.97
2017-11-09T04:47:18.093Z,46.10
2017-11-09T04:49:44.364Z,46.87
2017-11-09T04:52:10.663Z,46.73
2017-11-09T04:54:36.946Z,48.60
2017-11-09T04:57:03.244Z,50.00
2017-11-09T04:59:30.176Z,49.17
2017-11-09T05:01:56.447Z,50.60
2017-11-09T05:04:22.731Z,49.23
2017-11-09T05:06:49.755Z,49.93
2017-11-09T05:09:16.032Z,48.63
2017-11-09T05:11:42.320Z,48.83
2017-11-09T05:14:09.418Z,46.47
2017-11-09T05:16:35.691Z,46.50
2017-11-09T05:19:02.074Z,48.83
2017-11-09T05:21:28.452Z,48.07
2017-11-09T05:23:54.720Z,48.57
2017-11-09T05:26:21.015Z,45.43
2017-11-09T05:28:47.294Z,48.00
2017-11-09T05:31:13.599Z,48.43
2017-11-09T05:33:40.605Z,46.30
2017-11-09T05:36:06.892Z,45.40
2017-11-09T05:38:34.589Z,48.20
2017-11-09T05:41:00.903Z,47.87
2017-11-09T05:43:27.922Z,49.63
2017-11-09T05:45:54.231Z,49.07
2017-11-09T05:48:20.571Z,47.77
2017-11-09T05:50:47.583Z,47.60
2017-11-09T05:53:15.394Z,46.73
2017-11-09T05:55:41.736Z,48.83
2017-11-09T05:58:08.795Z,46.40
2017-11-09T06:00:35.847Z,46.07
2017-11-09T06:03:02.893Z,48.57
2017-11-09T06:05:28.964Z,46.97
2017-11-09T06:07:55.319Z,47.00
2017-11-09T06:10:21.505Z,45.10
2017-11-09T06:12:47.823Z,43.90
2017-11-09T06:15:14.184Z,44.43
2017-11-09T06:17:40.463Z,46.57
2017-11-09T06:20:06.747Z,50.77
2017-11-09T06:22:33.051Z,44.70
2017-11-09T06:24:59.324Z,43.30
2017-11-09T06:27:27.199Z,47.63
2017-11-09T06:29:53.473Z,46.70
2017-11-09T06:32:22.531Z,44.07
2017-11-09T06:34:48.768Z,45.57
2017-11-09T06:37:15.097Z,47.37
2017-11-09T06:39:41.529Z,46.17
2017-11-09T06:42:09.006Z,44.83
2017-11-09T06:44:36.038Z,48.43
2017-11-09T06:47:02.411Z,47.00
2017-11-09T06:49:28.684Z,44.87
2017-11-09T06:51:55.139Z,47.10
2017-11-09T06:54:23.367Z,43.70
2017-11-09T06:56:49.644Z,44.27
2017-11-09T06:59:15.959Z,44.17
2017-11-09T07:01:43.008Z,43.70
2017-11-09T07:04:10.017Z,44.20
2017-11-09T07:06:36.661Z,46.13
2017-11-09T07:09:03.113Z,46.70
2017-11-09T07:11:29.399Z,43.20
2017-11-09T07:13:55.663Z,44.20
2017-11-09T07:16:21.946Z,45.43
2017-11-09T07:18:48.248Z,42.73
2017-11-09T07:21:14.527Z,43.93
2017-11-09T07:23:44.324Z,45.67
2017-11-09T07:26:10.652Z,44.00
2017-11-09T07:28:37.639Z,44.93
2017-11-09T07:31:03.915Z,45.80
2017-11-09T07:33:30.247Z,48.87
2017-11-09T07:35:57.327Z,47.47
2017-11-09T07:38:23.600Z,44.30
2017-11-09T07:40:50.643Z,43.30
2017-11-09T07:43:16.930Z,45.40
2017-11-09T07:45:44.279Z,43.20
2017-11-09T07:48:10.562Z,46.10
2017-11-09T07:50:36.907Z,44.00
2017-11-09T07:53:03.221Z,44.90
2017-11-09T07:55:29.522Z,43.97
2017-11-09T07:57:55.865Z,44.30
2017-11-09T08:00:22.145Z,41.77
2017-11-09T08:02:48.443Z,44.97
2017-11-09T08:05:15.490Z,43.67
2017-11-09T08:07:43.039Z,45.60
2017-11-09T08:10:09.333Z,40.40
2017-11-09T08:12:35.619Z,44.93
2017-11-09T08:15:01.987Z,42.73
2017-11-09T08:17:28.275Z,44.57
2017-11-09T08:19:54.671Z,42.97
2017-11-09T08:22:21.076Z,41.53
2017-11-09T08:24:50.596Z,42.30
2017-11-09T08:27:21.459Z,45.83
2017-11-09T08:29:51.463Z,43.57
2017-11-09T08:32:21.686Z,44.93
2017-11-09T08:34:47.954Z,45.67
2017-11-09T08:37:14.267Z,43.60
2017-11-09T08:39:40.603Z,42.50
2017-11-09T08:42:06.979Z,45.07
2017-11-09T08:44:33.284Z,45.20
2017-11-09T08:46:59.576Z,44.03
2017-11-09T08:49:26.114Z,44.03
2017-11-09T08:51:52.648Z,45.57
2017-11-09T08:54:18.939Z,44.53
2017-11-09T08:56:46.582Z,42.90
2017-11-09T08:59:12.880Z,44.13
2017-11-09T09:01:39.127Z,43.40
2017-11-09T09:04:05.436Z,41.00
2017-11-09T09:06:33.445Z,42.30
2017-11-09T09:08:59.759Z,37.60
2017-11-09T09:11:27.272Z,41.97
2017-11-09T09:13:53.534Z,40.77
2017-11-09T09:16:19.836Z,40.97
2017-11-09T09:18:46.184Z,36.60
2017-11-09T09:21:18.711Z,39.60
2017-11-09T09:23:45.046Z,34.57
2017-11-09T09:26:16.542Z,34.93
2017-11-09T09:28:48.711Z,36.73
2017-11-09T09:31:14.985Z,35.90
2017-11-09T09:33:53.578Z,39.10
2017-11-09T09:36:28.596Z,35.83
2017-11-09T09:39:04.943Z,33.87
2017-11-09T09:41:32.025Z,34.10
2017-11-09T09:43:59.058Z,37.07
2017-11-09T09:46:25.323Z,36.20
2017-11-09T09:48:51.612Z,33.53
2017-11-09T09:51:23.678Z,35.70
2017-11-09T09:53:50.715Z,34.53
2017-11-09T09:56:16.971Z,34.80
2017-11-09T09:58:44.033Z,32.30
2017-11-09T10:01:11.051Z,35.20
2017-11-09T10:03:37.323Z,34.00
2017-11-09T10:06:08.628Z,33.47
2017-11-09T10:08:34.890Z,36.03
2017-11-09T10:11:01.187Z,37.70
2017-11-09T10:13:28.236Z,36.87
2017-11-09T10:15:54.663Z,35.87
2017-11-09T10:18:20.947Z,34.90
2017-11-09T10:20:47.188Z,35.27
2017-11-09T10:23:15.239Z,36.70
2017-11-09T10:25:41.546Z,36.27
2017-11-09T10:28:09.720Z,34.93
2017-11-09T10:30:36.011Z,35.80
2017-11-09T10:33:02.352Z,36.20
2017-11-09T10:35:28.627Z,38.03
2017-11-09T10:37:58.647Z,36.23
2017-11-09T10:40:25.725Z,38.63
2017-11-09T10:42:52.003Z,39.90
2017-11-09T10:45:18.290Z,38.30
2017-11-09T10:47:45.407Z,41.20
2017-11-09T10:50:12.438Z,39.27
2017-11-09T10:52:42.844Z,40.53
2017-11-09T10:55:09.124Z,37.30
2017-11-09T10:57:35.547Z,41.97
2017-11-09T11:00:01.975Z,36.50
2017-11-09T11:02:28.257Z,39.20
2017-11-09T11:04:54.527Z,40.47
2017-11-09T11:07:20.800Z,36.47
2017-11-09T11:09:49.403Z,40.40
2017-11-09T11:12:15.811Z,35.30
2017-11-09T11:14:42.151Z,34.67
2017-11-09T11:17:09.148Z,34.60
2017-11-09T11:19:38.328Z,34.20
2017-11-09T11:24:37.768Z,33.87
2017-11-09T11:27:04.059Z,30.93
2017-11-09T11:29:31.100Z,31.77
2017-11-09T11:31:57.579Z,31.40
2017-11-09T11:34:24.584Z,29.47
2017-11-09T11:36:54.385Z,28.20
2017-11-09T11:39:22.504Z,30.67
2017-11-09T11:41:48.590Z,31.80
2017-11-09T11:44:14.715Z,32.83
2017-11-09T11:46:40.994Z,30.13
2017-11-09T11:49:07.162Z,28.83
2017-11-09T11:51:34.035Z,32.57
2017-11-09T11:54:03.556Z,31.30
2017-11-09T11:56:29.839Z,29.70
2017-11-09T11:58:56.209Z,29.50
2017-11-09T12:01:22.499Z,30.93
2017-11-09T12:03:50.279Z,31.07
2017-11-09T12:06:16.426Z,32.47
2017-11-09T12:08:47.559Z,30.90
2017-11-09T12:11:13.666Z,27.53
2017-11-09T12:13:40.530Z,29.97
2017-11-09T12:16:07.318Z,31.70
2017-11-09T12:18:33.382Z,31.17
2017-11-09T12:20:59.455Z,30.00
2017-11-09T12:23:27.563Z,31.03
2017-11-09T12:25:57.871Z,31.80
2017-11-09T12:28:24.155Z,29.60
2017-11-09T12:30:50.751Z,32.17
2017-11-09T12:33:17.052Z,31.97
2017-11-09T12:35:43.321Z,29.27
2017-11-09T12:38:09.690Z,33.07
2017-11-09T12:40:37.600Z,31.57
2017-11-09T12:43:03.875Z,30.47
2017-11-09T12:45:30.885Z,28.90
2017-11-09T12:47:57.206Z,30.70
2017-11-09T12:50:23.479Z,30.43
2017-11-09T12:52:49.743Z,29.77
2017-11-09T12:55:16.040Z,32.93
2017-11-09T12:57:44.067Z,28.93
2017-11-09T13:00:10.395Z,33.10
2017-11-09T13:02:36.683Z,30.50
2017-11-09T13:05:02.960Z,30.97
2017-11-09T13:07:29.499Z,28.23
2017-11-09T13:09:56.606Z,29.20
2017-11-09T13:14:55.840Z,29.80
2017-11-09T13:17:22.835Z,32.23
2017-11-09T13:19:49.255Z,30.03
2017-11-09T13:22:16.279Z,29.27
2017-11-09T13:24:42.545Z,31.03
2017-11-09T13:27:12.890Z,30.13
2017-11-09T13:29:39.316Z,28.83
2017-11-09T13:32:05.614Z,29.73
2017-11-09T13:34:32.603Z,28.50
2017-11-09T13:36:59.529Z,29.83
2017-11-09T13:39:25.809Z,28.87
2017-11-09T13:41:58.003Z,30.33
2017-11-09T13:44:24.387Z,27.80
2017-11-09T13:46:50.698Z,28.13
2017-11-09T13:49:16.962Z,30.70
2017-11-09T13:51:43.230Z,30.63
2017-11-09T13:54:09.507Z,32.00
2017-11-09T13:56:41.646Z,28.33
2017-11-09T13:59:07.789Z,31.30
2017-11-09T14:01:33.864Z,31.40
2017-11-09T14:04:00.699Z,30.57
2017-11-09T14:06:26.766Z,30.80
2017-11-09T14:08:53.592Z,32.00
2017-11-09T14:11:19.654Z,34.93
2017-11-09T14:13:47.842Z,35.37
2017-11-09T14:16:13.930Z,32.93
2017-11-09T14:18:39.986Z,33.77
2017-11-09T14:21:06.095Z,32.97
2017-11-09T14:23:33.802Z,32.27
2017-11-09T14:25:59.899Z,32.70
2017-11-09T14:28:25.953Z,34.37
2017-11-09T14:30:53.807Z,31.57
2017-11-09T14:33:20.075Z,31.93
2017-11-09T14:35:47.080Z,34.20
2017-11-09T14:38:15.243Z,34.00
2017-11-09T14:40:41.535Z,33.67
2017-11-09T14:43:07.857Z,32.03
2017-11-09T14:45:37.863Z,32.60
2017-11-09T14:48:04.878Z,33.60
2017-11-09T14:50:31.150Z,32.90
2017-11-09T14:52:58.188Z,32.70
2017-11-09T14:55:24.252Z,33.03
2017-11-09T14:57:50.511Z,31.73
2017-11-09T15:00:17.171Z,30.80
2017-11-09T15:02:45.264Z,31.63
2017-11-09T15:05:12.066Z,30.17
2017-11-09T15:07:38.147Z,30.97
2017-11-09T15:10:04.438Z,29.43
2017-11-09T15:12:30.706Z,30.40
2017-11-09T15:14:57.146Z,30.80
2017-11-09T15:17:28.539Z,35.40
2017-11-09T15:19:55.623Z,32.77
2017-11-09T15:22:21.907Z,32.97
2017-11-09T15:24:48.180Z,30.60
2017-11-09T15:27:14.458Z,33.17
2017-11-09T15:29:40.770Z,31.60
2017-11-09T15:32:13.119Z,31.90
2017-11-09T15:34:40.141Z,32.70
2017-11-09T15:37:06.492Z,32.10
2017-11-09T15:39:32.795Z,32.50
2017-11-09T15:41:59.088Z,31.83
2017-11-09T15:44:25.355Z,31.27
2017-11-09T15:46:51.666Z,32.50
2017-11-09T15:49:22.046Z,32.00
2017-11-09T15:51:49.164Z,31.20
2017-11-09T15:54:15.418Z,32.90
2017-11-09T15:56:44.198Z,31.40
2017-11-09T15:59:10.575Z,33.70
2017-11-09T16:01:36.895Z,30.88
2017-11-09T16:04:03.652Z,31.27
2017-11-09T16:06:29.976Z,31.57
2017-11-09T16:08:57.017Z,31.70
2017-11-09T16:11:23.304Z,31.92
2017-11-09T16:13:53.551Z,32.75
2017-11-09T16:16:19.870Z,32.20
2017-11-09T16:18:46.978Z,32.90
2017-11-09T16:21:13.252Z,32.03
2017-11-09T16:23:39.550Z,33.70
2017-11-09T16:26:05.838Z,32.15
2017-11-09T16:28:32.259Z,32.92
2017-11-09T16:30:58.636Z,32.17
2017-11-09T16:33:25.112Z,31.67
2017-11-09T16:35:52.147Z,32.17
2017-11-09T16:38:18.403Z,30.80
2017-11-09T16:40:44.680Z,33.30
2017-11-09T16:43:11.011Z,35.40
2017-11-09T16:45:37.408Z,34.23
2017-11-09T16:48:03.678Z,33.47
2017-11-09T16:50:29.970Z,31.43
2017-11-09T16:52:56.266Z,32.87
2017-11-09T16:55:23.369Z,31.47
2017-11-09T16:57:50.407Z,32.80
2017-11-09T17:00:16.940Z,32.45
2017-11-09T17:02:43.544Z,32.10
2017-11-09T17:05:09.704Z,34.50
2017-11-09T17:07:35.886Z,34.90
2017-11-09T17:10:01.982Z,32.07
2017-11-09T17:12:28.827Z,31.70
2017-11-09T17:14:59.892Z,36.10
2017-11-09T17:17:27.057Z,33.17
2017-11-09T17:19:53.877Z,32.72
2017-11-09T17:22:19.954Z,32.40
2017-11-09T17:24:46.828Z,32.83
2017-11-09T17:27:14.447Z,32.22
2017-11-09T17:29:41.466Z,35.28
2017-11-09T17:32:07.951Z,32.95
2017-11-09T17:34:34.044Z,32.55
2017-11-09T17:37:00.896Z,32.40
2017-11-09T17:39:27.499Z,30.85
2017-11-09T17:41:58.201Z,33.80
2017-11-09T17:44:24.569Z,30.33
2017-11-09T17:46:51.491Z,34.55
2017-11-09T17:49:17.578Z,35.65
2017-11-09T17:51:44.407Z,34.60
2017-11-09T17:54:11.941Z,32.42
2017-11-09T17:56:38.046Z,32.30
2017-11-09T17:59:08.142Z,32.50
2017-11-09T18:01:34.279Z,33.90
2017-11-09T18:04:00.363Z,34.33
2017-11-09T18:06:27.185Z,34.75
2017-11-09T18:11:49.895Z,33.42
2017-11-09T18:14:15.964Z,32.63
2017-11-09T18:16:42.860Z,32.92
2017-11-09T18:19:09.031Z,30.92
2017-11-09T18:21:35.711Z,32.20
2017-11-09T18:24:01.759Z,31.90
2017-11-09T18:26:28.552Z,31.70
2017-11-09T18:28:54.617Z,31.48
2017-11-09T18:31:20.663Z,33.10
2017-11-09T18:33:49.463Z,32.67
2017-11-09T18:36:15.500Z,32.67
2017-11-09T18:38:43.498Z,29.70
2017-11-09T18:41:09.542Z,31.33
2017-11-09T18:43:35.706Z,29.52
2017-11-09T18:46:02.805Z,32.03
2017-11-09T18:48:29.002Z,31.30
2017-11-09T18:50:55.069Z,30.05
2017-11-09T18:53:21.123Z,32.03
2017-11-09T18:55:47.652Z,32.50
2017-11-09T18:58:15.669Z,34.50
2017-11-09T19:00:42.243Z,33.10
2017-11-09T19:03:08.407Z,33.37
2017-11-09T19:05:35.232Z,32.70
2017-11-09T19:10:35.875Z,31.93
2017-11-09T19:13:02.813Z,33.53
2017-11-09T19:15:28.951Z,33.07
2017-11-09T19:17:55.866Z,30.43
2017-11-09T19:20:21.944Z,33.97
2017-11-09T19:22:48.920Z,30.23
2017-11-09T19:25:15.039Z,29.23
2017-11-09T19:27:41.079Z,31.27
2017-11-09T19:30:07.883Z,33.80
2017-11-09T19:32:34.879Z,35.03
2017-11-09T19:35:00.955Z,31.50
2017-11-09T19:37:27.100Z,33.45
2017-11-09T19:39:53.911Z,30.47
2017-11-09T19:42:19.996Z,31.60
2017-11-09T19:44:46.804Z,30.63
2017-11-09T19:47:12.859Z,29.73
2017-11-09T19:49:38.931Z,30.37
2017-11-09T19:52:05.764Z,29.65
2017-11-09T19:54:32.919Z,30.47
2017-11-09T19:56:58.980Z,31.83
2017-11-09T19:59:25.747Z,31.30
2017-11-09T20:01:52.542Z,33.07
2017-11-09T20:04:18.608Z,30.20
2017-11-09T20:06:44.770Z,29.50
2017-11-09T20:09:11.560Z,32.90
2017-11-09T20:11:37.630Z,32.40
2017-11-09T20:14:03.691Z,33.50
2017-11-09T20:16:30.483Z,34.87
2017-11-09T20:18:56.516Z,32.37
2017-11-09T20:21:22.557Z,32.60
2017-11-09T20:23:48.604Z,31.30
2017-11-09T20:26:14.659Z,30.30
2017-11-09T20:28:40.731Z,33.93
2017-11-09T20:31:07.401Z,30.43
2017-11-09T20:33:34.201Z,31.30
2017-11-09T20:36:00.275Z,31.70
2017-11-09T20:38:27.143Z,29.80
2017-11-09T20:40:53.972Z,29.70
2017-11-09T20:43:22.912Z,30.73
2017-11-09T20:45:48.999Z,28.93
2017-11-09T20:48:15.107Z,31.63
2017-11-09T20:50:41.179Z,28.27
2017-11-09T20:53:07.227Z,30.33
2017-11-09T20:55:33.289Z,30.27
2017-11-09T20:57:59.343Z,30.03
2017-11-09T21:00:25.403Z,28.33
2017-11-09T21:02:51.558Z,27.62
2017-11-09T21:05:17.615Z,28.40
2017-11-09T21:07:43.658Z,28.53
2017-11-09T21:10:09.857Z,31.80
2017-11-09T21:12:35.894Z,28.87
2017-11-09T21:15:03.600Z,26.77
2017-11-09T21:17:30.395Z,27.93
2017-11-09T21:19:56.499Z,28.77
2017-11-09T21:22:22.531Z,28.87
2017-11-09T21:24:48.588Z,30.47
2017-11-09T21:27:14.651Z,29.30
2017-11-09T21:29:41.427Z,30.83
2017-11-09T21:32:07.471Z,30.73
2017-11-09T21:34:33.531Z,34.50
2017-11-09T21:36:59.607Z,30.58
2017-11-09T21:39:26.388Z,32.42
2017-11-09T21:41:52.439Z,30.47
2017-11-09T21:44:18.469Z,30.30
2017-11-09T21:46:44.515Z,28.75
2017-11-09T21:49:10.603Z,28.53
2017-11-09T21:51:37.414Z,28.50
2017-11-09T21:54:03.752Z,30.42
2017-11-09T21:56:30.617Z,30.80
2017-11-09T21:58:56.770Z,28.30
2017-11-09T22:01:22.816Z,27.80
2017-11-09T22:03:50.402Z,29.27
2017-11-09T22:06:16.460Z,28.08
2017-11-09T22:08:43.259Z,24.92
2017-11-09T22:11:09.350Z,25.60
2017-11-09T22:13:35.870Z,27.97
2017-11-09T22:16:01.931Z,26.40
2017-11-09T22:18:28.731Z,26.92
2017-11-09T22:20:54.818Z,25.02
2017-11-09T22:23:20.989Z,26.12
2017-11-09T22:25:47.792Z,26.12
2017-11-09T22:30:45.017Z,26.07
2017-11-09T22:33:13.502Z,27.07
2017-11-09T22:35:39.840Z,24.90
2017-11-09T22:38:06.628Z,25.98
2017-11-09T22:40:32.718Z,24.60
2017-11-09T22:42:58.885Z,24.63
2017-11-09T22:45:24.964Z,26.58
2017-11-09T22:47:51.162Z,23.65
2017-11-09T22:50:17.232Z,26.27
2017-11-09T22:52:43.331Z,26.10
2017-11-09T22:55:09.419Z,27.70
2017-11-09T22:57:35.474Z,26.10
2017-11-09T23:00:01.563Z,26.02
2017-11-09T23:02:28.351Z,26.42
2017-11-09T23:04:54.475Z,25.10
2017-11-09T23:07:21.679Z,26.20
2017-11-09T23:09:47.740Z,26.40
2017-11-09T23:12:13.835Z,27.10
2017-11-09T23:14:39.891Z,25.83
2017-11-09T23:17:05.961Z,25.88
2017-11-09T23:19:32.132Z,24.37
2017-11-09T23:21:58.212Z,23.92
2017-11-09T23:24:24.332Z,27.08
2017-11-09T23:26:50.413Z,25.70
2017-11-09T23:29:16.555Z,25.90
2017-11-09T23:31:46.706Z,25.75
2017-11-09T23:34:12.748Z,25.90
2017-11-09T23:36:38.834Z,23.85
2017-11-09T23:39:04.965Z,25.33
2017-11-09T23:41:31.107Z,24.10
2017-11-09T23:43:57.152Z,24.33
2017-11-09T23:46:23.274Z,23.95
2017-11-09T23:48:49.342Z,21.30
2017-11-09T23:51:15.402Z,25.10
2017-11-09T23:53:41.503Z,25.80
2017-11-09T23:56:07.600Z,23.60
2017-11-09T23:58:34.406Z,22.45
